Aviation Digital Data Service (ADDS)

Output produced by METARs form (0731 UTC 21 September 2018)
found at http://aviationweather.gov/metar/data/
 
KLBX 210520Z 2106/2206 15008KT P6SM VCSH FEW025 BKN250 
     FM211100 VRB03KT P6SM VCSH SCT030 SCT060 BKN150 
     FM211600 14007KT P6SM VCTS BKN035CB OVC150 
     PROB30 2116/2119 TSRA SCT025CB BKN040 
     FM212100 14009KT P6SM SCT035 BKN150 
     FM220200 13005KT P6SM FEW025 BKN250